createdAt,value
2018-10-04T00:00:43.017Z,6.47
2018-10-04T00:03:11.515Z,6.76
2018-10-04T00:05:40.049Z,6.76
2018-10-04T00:08:08.554Z,6.91
2018-10-04T00:10:37.120Z,6.97
2018-10-04T00:13:05.686Z,6.79
2018-10-04T00:15:34.229Z,6.87
2018-10-04T00:18:02.916Z,6.79
2018-10-04T00:20:31.457Z,6.82
2018-10-04T00:23:00.029Z,6.75
2018-10-04T00:25:28.668Z,6.71
2018-10-04T00:27:57.244Z,6.53
2018-10-04T00:30:25.773Z,6.66
2018-10-04T00:32:54.277Z,6.33
2018-10-04T00:35:22.811Z,6.39
2018-10-04T00:37:51.321Z,6.40
2018-10-04T00:40:19.860Z,6.56
2018-10-04T00:42:48.371Z,6.32
2018-10-04T00:45:16.941Z,6.24
2018-10-04T00:47:45.448Z,6.10
2018-10-04T00:50:14.092Z,6.39
2018-10-04T00:52:42.593Z,6.36
2018-10-04T00:55:11.127Z,6.42
2018-10-04T00:57:39.629Z,6.44
2018-10-04T01:00:08.160Z,5.74
2018-10-04T01:02:36.649Z,6.00
2018-10-04T01:05:05.217Z,6.01
2018-10-04T01:07:34.235Z,5.63
2018-10-04T01:10:02.757Z,5.98
2018-10-04T01:12:31.297Z,6.05
2018-10-04T01:14:59.797Z,6.25
2018-10-04T01:17:28.327Z,6.24
2018-10-04T01:19:56.829Z,6.06
2018-10-04T01:22:31.524Z,6.10
2018-10-04T01:25:00.113Z,5.87
2018-10-04T01:27:28.693Z,5.95
2018-10-04T01:29:57.247Z,6.13
2018-10-04T01:32:25.945Z,6.13
2018-10-04T01:34:54.503Z,5.98
2018-10-04T01:37:23.135Z,6.19
2018-10-04T01:39:51.677Z,6.04
2018-10-04T01:42:20.277Z,6.12
2018-10-04T01:44:48.825Z,6.21
2018-10-04T01:47:17.404Z,6.20
2018-10-04T01:49:45.948Z,6.14
2018-10-04T01:52:14.528Z,6.32
2018-10-04T01:54:43.085Z,6.13
2018-10-04T01:57:11.669Z,6.17
2018-10-04T01:59:40.228Z,6.12
2018-10-04T02:02:08.808Z,5.84
2018-10-04T02:04:37.353Z,6.03
2018-10-04T02:07:05.933Z,6.05
2018-10-04T02:09:34.480Z,5.92
2018-10-04T02:12:03.096Z,5.97
2018-10-04T02:14:31.625Z,5.78
2018-10-04T02:17:00.207Z,5.59
2018-10-04T02:19:28.736Z,5.42
2018-10-04T02:21:57.321Z,5.60
2018-10-04T02:24:25.872Z,5.75
2018-10-04T02:26:54.453Z,5.75
2018-10-04T02:29:23.000Z,5.61
2018-10-04T02:31:51.569Z,5.52
2018-10-04T02:34:20.113Z,5.71
2018-10-04T02:36:48.690Z,5.46
2018-10-04T02:39:17.240Z,5.61
2018-10-04T02:41:45.808Z,5.68
2018-10-04T02:44:14.343Z,5.64
2018-10-04T02:46:42.917Z,5.66
2018-10-04T02:49:11.782Z,5.59
2018-10-04T02:51:40.472Z,5.59
2018-10-04T02:54:11.369Z,5.45
2018-10-04T02:56:45.165Z,5.53
2018-10-04T02:59:13.713Z,5.16
2018-10-04T03:01:42.249Z,4.95
2018-10-04T03:04:10.828Z,5.15
2018-10-04T03:06:39.385Z,5.39
2018-10-04T03:09:07.992Z,5.32
2018-10-04T03:11:36.550Z,5.36
2018-10-04T03:14:05.148Z,4.76
2018-10-04T03:16:33.709Z,5.24
2018-10-04T03:19:02.305Z,5.17
2018-10-04T03:21:30.874Z,5.32
2018-10-04T03:23:59.457Z,5.47
2018-10-04T03:26:28.014Z,5.52
2018-10-04T03:28:56.597Z,5.46
2018-10-04T03:31:25.171Z,5.24
2018-10-04T03:33:53.749Z,5.46
2018-10-04T03:36:22.298Z,5.43
2018-10-04T03:38:50.903Z,5.13
2018-10-04T03:41:19.444Z,4.97
2018-10-04T03:43:48.196Z,5.00
2018-10-04T03:46:17.056Z,5.05
2018-10-04T03:48:45.627Z,5.13
2018-10-04T03:51:14.189Z,5.00
2018-10-04T03:53:42.780Z,5.04
2018-10-04T03:56:11.336Z,5.07
2018-10-04T03:58:39.904Z,5.05
2018-10-04T04:01:08.741Z,4.88
2018-10-04T04:03:37.337Z,4.92
2018-10-04T04:06:05.909Z,4.90
2018-10-04T04:08:35.065Z,4.90
2018-10-04T04:11:03.612Z,4.88
2018-10-04T04:13:32.209Z,4.85
2018-10-04T04:16:00.764Z,5.03
2018-10-04T04:18:29.340Z,5.00
2018-10-04T04:20:57.908Z,4.90
2018-10-04T04:23:26.516Z,4.75
2018-10-04T04:25:55.072Z,4.76
2018-10-04T04:28:23.662Z,4.62
2018-10-04T04:30:52.285Z,4.81
2018-10-04T04:33:20.825Z,4.91
2018-10-04T04:35:49.383Z,4.82
2018-10-04T04:38:17.953Z,4.68
2018-10-04T04:40:46.518Z,4.85
2018-10-04T04:43:15.145Z,4.87
2018-10-04T04:45:43.719Z,4.67
2018-10-04T04:48:12.281Z,4.61
2018-10-04T04:50:40.873Z,4.72
2018-10-04T04:53:34.839Z,4.56
2018-10-04T04:56:03.385Z,4.78
2018-10-04T04:58:31.949Z,4.81
2018-10-04T05:01:00.724Z,4.72
2018-10-04T05:03:29.285Z,4.84
2018-10-04T05:05:57.944Z,4.81
2018-10-04T05:08:26.492Z,4.76
2018-10-04T05:10:55.076Z,4.80
2018-10-04T05:13:23.637Z,4.79
2018-10-04T05:15:52.259Z,4.68
2018-10-04T05:18:20.823Z,4.72
2018-10-04T05:20:49.488Z,4.70
2018-10-04T05:23:18.132Z,4.78
2018-10-04T05:25:46.724Z,4.52
2018-10-04T05:28:15.289Z,4.45
2018-10-04T05:30:43.889Z,4.70
2018-10-04T05:33:12.445Z,4.69
2018-10-04T05:35:41.822Z,4.51
2018-10-04T05:38:10.377Z,4.73
2018-10-04T05:40:38.984Z,4.91
2018-10-04T05:43:07.847Z,4.74
2018-10-04T05:45:36.437Z,4.71
2018-10-04T05:48:05.008Z,4.68
2018-10-04T05:50:33.615Z,4.68
2018-10-04T05:53:02.296Z,4.53
2018-10-04T05:55:30.834Z,4.76
2018-10-04T05:57:59.482Z,4.70
2018-10-04T06:00:36.177Z,4.75
2018-10-04T06:03:05.251Z,4.92
2018-10-04T06:05:33.871Z,4.81
2018-10-04T06:08:02.766Z,4.91
2018-10-04T06:10:32.004Z,5.04
2018-10-04T06:13:00.565Z,5.02
2018-10-04T06:15:29.249Z,5.16
2018-10-04T06:17:57.757Z,5.13
2018-10-04T06:20:35.029Z,5.30
2018-10-04T06:23:03.637Z,5.26
2018-10-04T06:25:32.221Z,5.18
2018-10-04T06:28:00.950Z,5.18
2018-10-04T06:30:30.228Z,5.33
2018-10-04T06:32:58.784Z,5.39
2018-10-04T06:35:27.425Z,5.41
2018-10-04T06:37:55.973Z,5.42
2018-10-04T06:40:27.965Z,5.41
2018-10-04T06:42:56.641Z,5.51
2018-10-04T06:45:25.376Z,5.57
2018-10-04T06:47:54.005Z,5.73
2018-10-04T06:50:22.821Z,5.72
2018-10-04T06:52:51.426Z,5.65
2018-10-04T06:55:20.190Z,5.87
2018-10-04T06:57:48.798Z,5.78
2018-10-04T07:00:17.693Z,5.56
2018-10-04T07:02:48.975Z,5.82
2018-10-04T07:05:17.740Z,5.85
2018-10-04T07:07:46.281Z,6.00
2018-10-04T07:10:15.425Z,6.16
2018-10-04T07:12:44.134Z,6.06
2018-10-04T07:15:13.164Z,6.21
2018-10-04T07:17:41.745Z,6.31
2018-10-04T07:20:17.042Z,6.21
2018-10-04T07:22:45.612Z,6.31
2018-10-04T07:25:14.204Z,6.48
2018-10-04T07:27:42.793Z,6.44
2018-10-04T07:30:11.390Z,6.57
2018-10-04T07:32:39.982Z,6.75
2018-10-04T07:35:08.557Z,6.84
2018-10-04T07:37:37.225Z,6.94
2018-10-04T07:40:06.221Z,7.08
2018-10-04T07:42:35.053Z,7.12
2018-10-04T07:45:03.576Z,7.22
2018-10-04T07:47:32.148Z,7.30
2018-10-04T07:50:00.746Z,7.46
2018-10-04T07:52:29.294Z,7.52
2018-10-04T07:54:57.857Z,7.64
2018-10-04T07:57:26.478Z,7.74
2018-10-04T07:59:55.036Z,7.81
2018-10-04T08:02:23.613Z,7.90
2018-10-04T08:04:52.160Z,8.08
2018-10-04T08:07:20.736Z,8.21
2018-10-04T08:09:49.308Z,8.30
2018-10-04T08:12:17.913Z,8.43
2018-10-04T08:14:46.765Z,8.43
2018-10-04T08:17:16.024Z,8.54
2018-10-04T08:19:44.971Z,8.62
2018-10-04T08:22:13.998Z,8.71
2018-10-04T08:24:42.839Z,8.93
2018-10-04T08:27:11.425Z,8.90
2018-10-04T08:29:40.073Z,9.01
2018-10-04T08:32:08.760Z,9.11
2018-10-04T08:34:37.544Z,9.20
2018-10-04T08:37:06.343Z,9.30
2018-10-04T08:39:34.889Z,9.40
2018-10-04T08:42:03.597Z,9.50
2018-10-04T08:44:32.141Z,9.65
2018-10-04T08:47:00.741Z,9.70
2018-10-04T08:49:29.319Z,9.85
2018-10-04T08:51:57.920Z,9.97
2018-10-04T08:54:33.291Z,10.09
2018-10-04T08:57:02.417Z,10.33
2018-10-04T08:59:31.101Z,10.46
2018-10-04T09:01:59.772Z,10.53
2018-10-04T09:04:28.412Z,10.53
2018-10-04T09:06:57.005Z,10.62
2018-10-04T09:09:25.592Z,10.82
2018-10-04T09:11:54.643Z,10.86
2018-10-04T09:14:23.288Z,11.03
2018-10-04T09:16:51.841Z,11.13
2018-10-04T09:19:20.429Z,11.16
2018-10-04T09:21:49.345Z,11.31
2018-10-04T09:24:17.917Z,11.44
2018-10-04T09:26:46.485Z,11.53
2018-10-04T09:29:15.137Z,11.50
2018-10-04T09:31:46.040Z,11.71
2018-10-04T09:34:14.642Z,11.71
2018-10-04T09:36:43.228Z,11.92
2018-10-04T09:39:12.743Z,12.14
2018-10-04T09:41:41.365Z,12.22
2018-10-04T09:44:10.693Z,12.25
2018-10-04T09:46:39.931Z,12.31
2018-10-04T09:49:08.536Z,12.35
2018-10-04T09:51:42.777Z,12.48
2018-10-04T09:54:15.807Z,12.49
2018-10-04T09:56:47.227Z,12.85
2018-10-04T09:59:15.944Z,13.06
2018-10-04T10:01:49.961Z,13.06
2018-10-04T10:04:18.844Z,13.11
2018-10-04T10:06:47.397Z,13.03
2018-10-04T10:09:16.252Z,13.03
2018-10-04T10:11:44.887Z,13.25
2018-10-04T10:14:13.757Z,13.20
2018-10-04T10:16:44.535Z,13.44
2018-10-04T10:19:13.639Z,13.53
2018-10-04T10:21:44.745Z,13.51
2018-10-04T10:24:16.272Z,13.58
2018-10-04T10:26:47.033Z,13.88
2018-10-04T10:29:15.623Z,14.12
2018-10-04T10:31:45.241Z,13.96
2018-10-04T10:34:16.052Z,14.18
2018-10-04T10:36:46.503Z,14.34
2018-10-04T10:39:15.155Z,14.03
2018-10-04T10:41:45.012Z,14.19
2018-10-04T10:44:14.406Z,14.30
2018-10-04T10:46:42.980Z,14.60
2018-10-04T10:49:13.021Z,14.53
2018-10-04T10:51:42.555Z,14.89
2018-10-04T10:54:12.498Z,14.85
2018-10-04T10:56:52.319Z,14.94
2018-10-04T10:59:21.424Z,14.84
2018-10-04T11:01:49.981Z,15.08
2018-10-04T11:04:18.553Z,14.85
2018-10-04T11:06:47.104Z,15.12
2018-10-04T11:09:16.934Z,14.89
2018-10-04T11:11:48.577Z,14.94
2018-10-04T11:14:17.268Z,14.89
2018-10-04T11:16:45.829Z,15.07
2018-10-04T11:19:15.377Z,15.32
2018-10-04T11:21:43.972Z,15.29
2018-10-04T11:24:12.611Z,15.17
2018-10-04T11:26:41.533Z,15.27
2018-10-04T11:29:10.340Z,15.40
2018-10-04T11:31:39.652Z,15.23
2018-10-04T11:34:08.241Z,15.58
2018-10-04T11:36:37.868Z,15.98
2018-10-04T11:39:10.129Z,15.68
2018-10-04T11:41:40.291Z,15.57
2018-10-04T11:44:16.801Z,15.75
2018-10-04T11:46:47.049Z,15.88
2018-10-04T11:49:18.248Z,15.89
2018-10-04T11:51:46.844Z,16.05
2018-10-04T11:54:15.438Z,15.89
2018-10-04T11:56:44.121Z,15.91
2018-10-04T11:59:12.961Z,16.12
2018-10-04T12:01:41.751Z,16.03
2018-10-04T12:04:10.265Z,16.04
2018-10-04T12:06:39.441Z,16.13
2018-10-04T12:09:08.884Z,16.33
2018-10-04T12:11:40.618Z,16.24
2018-10-04T12:14:09.487Z,16.34
2018-10-04T12:16:38.196Z,16.63
2018-10-04T12:19:07.885Z,16.86
2018-10-04T12:21:37.322Z,16.76
2018-10-04T12:24:17.466Z,16.68
2018-10-04T12:26:57.072Z,16.68
2018-10-04T12:29:42.955Z,16.81
2018-10-04T12:32:18.002Z,16.83
2018-10-04T12:34:47.048Z,16.87
2018-10-04T12:37:15.673Z,17.06
2018-10-04T12:39:44.317Z,17.36
2018-10-04T12:42:12.915Z,17.05
2018-10-04T12:44:41.495Z,17.25
2018-10-04T12:47:10.838Z,17.22
2018-10-04T12:49:39.397Z,17.22
2018-10-04T12:52:08.009Z,17.30
2018-10-04T12:54:36.758Z,17.71
2018-10-04T12:57:05.373Z,17.80
2018-10-04T12:59:33.921Z,17.94
2018-10-04T13:02:02.496Z,18.02
2018-10-04T13:04:31.052Z,18.10
2018-10-04T13:07:00.111Z,18.08
2018-10-04T13:09:28.497Z,17.90
2018-10-04T13:11:57.117Z,18.26
2018-10-04T13:14:25.689Z,17.96
2018-10-04T13:16:54.648Z,18.02
2018-10-04T13:19:26.234Z,18.14
2018-10-04T13:21:54.869Z,18.56
2018-10-04T13:24:23.684Z,18.39
2018-10-04T13:26:52.465Z,18.40
2018-10-04T13:29:21.548Z,18.26
2018-10-04T13:31:54.375Z,17.98
2018-10-04T13:34:23.039Z,18.65
2018-10-04T13:36:51.621Z,18.57
2018-10-04T13:39:20.539Z,18.73
2018-10-04T13:41:49.277Z,18.71
2018-10-04T13:44:20.744Z,18.69
2018-10-04T13:46:49.324Z,18.71
2018-10-04T13:49:17.928Z,18.64
2018-10-04T13:51:46.600Z,18.86
2018-10-04T13:54:15.149Z,18.85
2018-10-04T13:56:44.892Z,18.97
2018-10-04T13:59:13.523Z,18.97
2018-10-04T14:01:44.564Z,19.16
2018-10-04T14:04:13.528Z,19.40
2018-10-04T14:06:42.225Z,19.02
2018-10-04T14:09:10.904Z,19.15
2018-10-04T14:11:39.485Z,19.10
2018-10-04T14:14:08.132Z,19.12
2018-10-04T14:16:36.889Z,19.30
2018-10-04T14:19:06.446Z,19.55
2018-10-04T14:21:35.165Z,19.43
2018-10-04T14:24:04.047Z,19.84
2018-10-04T14:26:32.649Z,19.99
2018-10-04T14:29:01.228Z,19.89
2018-10-04T14:31:29.776Z,20.04
2018-10-04T14:33:58.389Z,20.24
2018-10-04T14:36:26.969Z,20.30
2018-10-04T14:38:55.914Z,20.53
2018-10-04T14:41:24.502Z,20.69
2018-10-04T14:43:53.082Z,20.94
2018-10-04T14:46:21.805Z,21.59
2018-10-04T14:48:51.831Z,21.87
2018-10-04T14:51:20.645Z,21.98
2018-10-04T14:53:49.277Z,22.47
2018-10-04T14:56:17.835Z,22.46
2018-10-04T14:58:46.419Z,23.01
2018-10-04T15:01:14.991Z,22.97
2018-10-04T15:03:43.653Z,23.61
2018-10-04T15:06:12.250Z,23.63
2018-10-04T15:08:40.852Z,23.07
2018-10-04T15:11:09.660Z,22.56
2018-10-04T15:13:38.775Z,22.32
2018-10-04T15:16:09.313Z,22.33
2018-10-04T15:18:39.154Z,22.57
2018-10-04T15:21:08.340Z,22.67
2018-10-04T15:23:38.894Z,22.90
2018-10-04T15:26:08.572Z,22.43
2018-10-04T15:28:37.280Z,22.79
2018-10-04T15:31:05.962Z,22.94
2018-10-04T15:33:34.560Z,22.56
2018-10-04T15:36:03.853Z,23.16
2018-10-04T15:38:33.276Z,22.82
2018-10-04T15:41:02.360Z,22.81
2018-10-04T15:43:32.126Z,22.82
2018-10-04T15:46:00.811Z,22.49
2018-10-04T15:48:29.929Z,22.46
2018-10-04T15:50:58.514Z,22.36
2018-10-04T15:53:27.386Z,22.21
2018-10-04T15:55:55.933Z,21.86
2018-10-04T15:58:24.808Z,21.82
2018-10-04T16:00:53.361Z,21.64
2018-10-04T16:03:22.721Z,21.41
2018-10-04T16:05:52.139Z,21.35
2018-10-04T16:08:20.713Z,21.27
2018-10-04T16:10:50.143Z,20.94
2018-10-04T16:13:19.646Z,20.97
2018-10-04T16:15:51.549Z,20.52
2018-10-04T16:18:20.156Z,20.21
2018-10-04T16:20:55.568Z,20.03
2018-10-04T16:23:24.864Z,19.88
2018-10-04T16:25:53.497Z,19.60
2018-10-04T16:28:22.692Z,19.56
2018-10-04T16:30:52.262Z,19.44
2018-10-04T16:33:21.841Z,18.71
2018-10-04T16:35:50.413Z,18.80
2018-10-04T16:38:23.712Z,18.84
2018-10-04T16:40:53.113Z,18.55
2018-10-04T16:43:23.487Z,18.13
2018-10-04T16:45:52.606Z,17.94
2018-10-04T16:48:32.198Z,17.82
2018-10-04T16:51:01.627Z,17.57
2018-10-04T16:53:31.540Z,17.33
2018-10-04T16:56:01.007Z,17.25
2018-10-04T16:58:29.739Z,17.12
2018-10-04T17:00:58.983Z,16.95
2018-10-04T17:03:28.165Z,16.73
2018-10-04T17:05:57.395Z,16.45
2018-10-04T17:08:29.570Z,16.42
2018-10-04T17:11:03.109Z,16.30
2018-10-04T17:13:35.236Z,16.14
2018-10-04T17:16:03.981Z,15.87
2018-10-04T17:18:43.861Z,15.75
2018-10-04T17:21:12.641Z,15.68
2018-10-04T17:23:41.444Z,15.52
2018-10-04T17:26:10.033Z,15.40
2018-10-04T17:28:38.605Z,15.17
2018-10-04T17:31:07.214Z,15.05
2018-10-04T17:33:35.756Z,14.91
2018-10-04T17:36:04.341Z,14.71
2018-10-04T17:38:37.865Z,14.71
2018-10-04T17:41:08.552Z,14.53
2018-10-04T17:43:37.105Z,14.36
2018-10-04T17:46:08.926Z,14.14
2018-10-04T17:48:37.550Z,14.03
2018-10-04T17:51:06.145Z,13.97
2018-10-04T17:53:34.765Z,13.63
2018-10-04T17:56:08.384Z,13.67
2018-10-04T17:58:41.568Z,13.39
2018-10-04T18:01:16.566Z,13.52
2018-10-04T18:03:50.216Z,13.26
2018-10-04T18:06:19.285Z,12.92
2018-10-04T18:08:47.840Z,13.09
2018-10-04T18:11:18.145Z,13.15
2018-10-04T18:13:47.888Z,12.62
2018-10-04T18:16:16.596Z,12.66
2018-10-04T18:18:45.194Z,12.69
2018-10-04T18:21:13.845Z,12.62
2018-10-04T18:23:42.433Z,12.59
2018-10-04T18:26:11.060Z,12.55
2018-10-04T18:28:39.658Z,12.47
2018-10-04T18:31:08.258Z,12.20
2018-10-04T18:33:36.844Z,12.18
2018-10-04T18:36:05.393Z,12.08
2018-10-04T18:38:34.142Z,11.92
2018-10-04T18:41:02.852Z,11.90
2018-10-04T18:43:33.073Z,11.67
2018-10-04T18:46:01.698Z,11.46
2018-10-04T18:48:30.277Z,11.50
2018-10-04T18:51:00.306Z,11.53
2018-10-04T18:53:31.517Z,11.50
2018-10-04T18:56:00.338Z,11.07
2018-10-04T18:58:29.321Z,10.97
2018-10-04T19:00:57.884Z,11.14
2018-10-04T19:03:26.488Z,10.98
2018-10-04T19:05:55.100Z,11.12
2018-10-04T19:08:23.683Z,11.19
2018-10-04T19:10:52.269Z,11.10
2018-10-04T19:13:20.873Z,11.37
2018-10-04T19:15:49.773Z,11.23
2018-10-04T19:18:18.396Z,11.25
2018-10-04T19:20:47.237Z,10.99
2018-10-04T19:23:15.833Z,11.07
2018-10-04T19:25:44.376Z,10.97
2018-10-04T19:28:15.969Z,10.98
2018-10-04T19:30:44.580Z,11.10
2018-10-04T19:33:13.158Z,11.13
2018-10-04T19:35:47.559Z,11.02
2018-10-04T19:38:17.124Z,10.97
2018-10-04T19:40:46.043Z,10.91
2018-10-04T19:43:20.230Z,10.86
2018-10-04T19:45:53.855Z,10.83
2018-10-04T19:48:33.651Z,10.91
2018-10-04T19:51:02.462Z,10.72
2018-10-04T19:53:31.127Z,10.45
2018-10-04T19:55:59.676Z,10.02
2018-10-04T19:58:28.326Z,10.16
2018-10-04T20:00:58.550Z,9.91
2018-10-04T20:03:27.300Z,9.84
2018-10-04T20:05:57.579Z,9.77
2018-10-04T20:08:29.474Z,9.49
2018-10-04T20:10:58.728Z,9.58
2018-10-04T20:13:28.626Z,9.50
2018-10-04T20:16:06.387Z,9.65
2018-10-04T20:18:42.557Z,9.69
2018-10-04T20:21:17.946Z,9.78
2018-10-04T20:23:51.307Z,9.69
2018-10-04T20:26:23.132Z,9.37
2018-10-04T20:28:56.460Z,9.56
2018-10-04T20:31:29.695Z,9.41
2018-10-04T20:34:07.824Z,9.71
2018-10-04T20:36:43.123Z,9.35
2018-10-04T20:39:15.572Z,9.24
2018-10-04T20:41:49.682Z,9.30
2018-10-04T20:44:22.826Z,9.34
2018-10-04T20:46:55.446Z,9.35
2018-10-04T20:49:29.147Z,9.45
2018-10-04T20:52:07.880Z,9.41
2018-10-04T20:54:43.372Z,9.30
2018-10-04T20:57:16.715Z,9.21
2018-10-04T20:59:51.299Z,9.46
2018-10-04T21:02:34.714Z,9.53
2018-10-04T21:05:08.713Z,9.42
2018-10-04T21:07:43.627Z,9.28
2018-10-04T21:10:15.984Z,9.27
2018-10-04T21:12:46.938Z,9.22
2018-10-04T21:15:21.005Z,9.27
2018-10-04T21:17:53.693Z,9.35
2018-10-04T21:20:27.736Z,9.44
2018-10-04T21:23:02.186Z,9.28
2018-10-04T21:25:35.229Z,9.39
2018-10-04T21:28:08.618Z,9.34
2018-10-04T21:30:41.813Z,8.99
2018-10-04T21:33:13.032Z,9.22
2018-10-04T21:35:46.294Z,9.23
2018-10-04T21:38:20.315Z,9.20
2018-10-04T21:40:53.906Z,8.90
2018-10-04T21:43:33.532Z,9.15
2018-10-04T21:46:08.939Z,8.93
2018-10-04T21:48:41.801Z,8.95
2018-10-04T21:51:15.472Z,8.99
2018-10-04T21:53:48.112Z,9.03
2018-10-04T21:56:20.970Z,8.99
2018-10-04T21:58:52.205Z,8.95
2018-10-04T22:01:24.970Z,8.95
2018-10-04T22:03:57.363Z,8.72
2018-10-04T22:06:31.424Z,8.22
2018-10-04T22:09:02.165Z,7.94
2018-10-04T22:11:33.730Z,8.12
2018-10-04T22:14:03.575Z,8.05
2018-10-04T22:16:34.858Z,8.20
2018-10-04T22:19:04.736Z,8.41
2018-10-04T22:21:35.841Z,8.29
2018-10-04T22:24:04.413Z,8.39
2018-10-04T22:26:35.409Z,8.10
2018-10-04T22:29:07.222Z,8.19
2018-10-04T22:31:35.864Z,8.40
2018-10-04T22:34:04.416Z,8.44
2018-10-04T22:36:33.020Z,7.77
2018-10-04T22:39:01.556Z,7.59
2018-10-04T22:41:30.140Z,7.43
2018-10-04T22:43:58.921Z,7.49
2018-10-04T22:46:27.497Z,7.57
2018-10-04T22:48:56.049Z,7.70
2018-10-04T22:51:24.676Z,7.89
2018-10-04T22:53:53.496Z,7.96
2018-10-04T22:56:22.060Z,7.91
2018-10-04T22:58:50.624Z,7.87
2018-10-04T23:01:19.213Z,7.74
2018-10-04T23:03:47.760Z,7.32
2018-10-04T23:06:16.360Z,7.67
2018-10-04T23:08:45.138Z,6.90
2018-10-04T23:11:13.716Z,7.20
2018-10-04T23:13:42.276Z,7.21
2018-10-04T23:16:16.157Z,7.37
2018-10-04T23:18:52.512Z,7.26
2018-10-04T23:21:27.176Z,7.34
2018-10-04T23:24:01.626Z,7.62
2018-10-04T23:26:34.895Z,7.70
2018-10-04T23:29:08.127Z,7.76
2018-10-04T23:31:44.007Z,7.59
2018-10-04T23:34:18.945Z,7.46
2018-10-04T23:36:54.426Z,7.58
2018-10-04T23:39:29.553Z,7.20
2018-10-04T23:42:04.529Z,7.37
2018-10-04T23:44:37.300Z,7.46
2018-10-04T23:47:06.057Z,7.46
2018-10-04T23:49:34.645Z,7.58
2018-10-04T23:52:03.317Z,7.54
2018-10-04T23:54:31.913Z,7.51
2018-10-04T23:57:00.480Z,7.47
2018-10-04T23:59:29.038Z,7.40
